Jerome, Michigan
Current Conditions -  °F | °C
As of 3:55 PM on Thursday 23 Oct 2014 (Local Time) from KJYM Reporting Station
Clear Clear  
Wind Chill: 58°   Ceiling: Unl
Heat Index: 58°   Visibility: 10mi
Dew Point: 38°   Wind: 5mph
Humidity: 46%   Direction: 250°WSW
Pressure: 30.14"   Gusts: NA
Location:  42.03°N, 84.47°W
Report Text: KJYM 231955Z AUTO 25004KT 10SM CLR 15/03 A3014 RMK AO2 T01470033
Loading
Personal Weather Stations






























Interactive Weather Map New forecast layout! Learn more

10-Day Weather Forecast

Advertisements
Track Severe Weather on mobile